Time;durP1;ratioP1;P1;durP2;ratioP2;P2;SDS_P1;SDS_P2;PMS_P1;PMS_P2;Temp;Humidity;BMP_temperature;BMP_pressure;BME280_temperature;BME280_humidity;BME280_pressure;Samples;Min_cycle;Max_cycle;Signal;HPM_P1;HPM_P2
2024/01/24 00:02:07;;;;;;;7.50;1.70;;;;;;;;;;4986126;28;20507;-79
2024/01/24 00:04:34;;;;;;;4.13;1.17;;;;;;;;;;4973241;28;20055;-78
2024/01/24 00:07:00;;;;;;;5.00;1.52;;;;;;;;;;4974593;28;20082;-78
2024/01/24 00:09:30;;;;;;;5.28;1.20;;;;;;;;;;4986940;28;20057;-81
2024/01/24 00:11:58;;;;;;;3.30;1.65;;;;;;;;;;4993794;28;20103;-79
2024/01/24 00:14:25;;;;;;;7.78;1.40;;;;;;;;;;4961838;28;20059;-80
2024/01/24 00:16:52;;;;;;;5.40;0.98;;;;;;;;;;4977619;28;20530;-80
2024/01/24 00:19:19;;;;;;;3.53;0.70;;;;;;;;;;4977083;28;20105;-79
2024/01/24 00:21:46;;;;;;;2.75;0.70;;;;;;;;;;4977702;28;20058;-78
2024/01/24 00:24:13;;;;;;;7.43;0.98;;;;;;;;;;4977773;28;20136;-78
2024/01/24 00:26:40;;;;;;;3.60;0.90;;;;;;;;;;4994936;28;20050;-78
2024/01/24 00:29:07;;;;;;;5.63;1.42;;;;;;;;;;4959643;28;20082;-79
2024/01/24 00:31:34;;;;;;;3.15;0.80;;;;;;;;;;4993501;28;20050;-79
2024/01/24 00:34:01;;;;;;;2.92;1.25;;;;;;;;;;4993729;28;20494;-80
2024/01/24 00:36:28;;;;;;;3.78;0.77;;;;;;;;;;4977813;28;20090;-79
2024/01/24 00:38:55;;;;;;;3.83;0.93;;;;;;;;;;4969637;28;20055;-79
2024/01/24 00:41:22;;;;;;;5.68;0.95;;;;;;;;;;4993125;28;20133;-79
2024/01/24 00:43:49;;;;;;;4.38;0.55;;;;;;;;;;4993280;28;20105;-81
2024/01/24 00:46:15;;;;;;;3.75;0.70;;;;;;;;;;4969529;28;20674;-81
2024/01/24 00:48:42;;;;;;;3.65;1.02;;;;;;;;;;4955395;28;20058;-80
2024/01/24 00:51:09;;;;;;;2.83;1.00;;;;;;;;;;4957472;28;20127;-79
2024/01/24 00:53:36;;;;;;;2.13;0.95;;;;;;;;;;5002450;28;20061;-79
2024/01/24 00:56:04;;;;;;;2.53;1.02;;;;;;;;;;4968609;28;20054;-81
2024/01/24 00:58:31;;;;;;;3.55;0.80;;;;;;;;;;4963029;28;20050;-81
2024/01/24 01:00:58;;;;;;;5.50;1.02;;;;;;;;;;4992119;28;20093;-81
2024/01/24 01:03:25;;;;;;;3.78;1.13;;;;;;;;;;4960153;28;20042;-81
2024/01/24 01:05:52;;;;;;;5.00;1.33;;;;;;;;;;4979041;28;20129;-81
2024/01/24 01:08:18;;;;;;;2.63;1.42;;;;;;;;;;4992271;28;20132;-82
2024/01/24 01:10:45;;;;;;;3.40;0.82;;;;;;;;;;4989284;28;20054;-81
2024/01/24 01:13:12;;;;;;;6.03;0.80;;;;;;;;;;4995937;28;20053;-80
2024/01/24 01:15:39;;;;;;;4.35;0.70;;;;;;;;;;4962769;28;20077;-80
2024/01/24 01:18:06;;;;;;;4.43;0.73;;;;;;;;;;4962422;28;20058;-80
2024/01/24 01:20:32;;;;;;;2.97;0.70;;;;;;;;;;4971385;28;20429;-80
2024/01/24 01:22:59;;;;;;;4.93;0.95;;;;;;;;;;4994290;28;20085;-80
2024/01/24 01:25:26;;;;;;;4.35;1.40;;;;;;;;;;4964437;28;20109;-80
2024/01/24 01:27:53;;;;;;;2.20;0.80;;;;;;;;;;4996231;28;20128;-78
2024/01/24 01:30:21;;;;;;;3.13;0.80;;;;;;;;;;4989167;28;20061;-78
2024/01/24 01:32:47;;;;;;;3.50;0.80;;;;;;;;;;4980102;28;20133;-78
2024/01/24 01:35:14;;;;;;;3.17;0.80;;;;;;;;;;4996083;28;20050;-80
2024/01/24 01:37:41;;;;;;;3.13;0.70;;;;;;;;;;4976101;28;20481;-77
2024/01/24 01:40:09;;;;;;;3.50;0.70;;;;;;;;;;4984193;28;20062;-79
2024/01/24 01:42:36;;;;;;;6.43;1.20;;;;;;;;;;4972754;28;20114;-79
2024/01/24 01:45:03;;;;;;;3.13;0.60;;;;;;;;;;4993202;28;20058;-78
2024/01/24 01:47:30;;;;;;;5.07;0.70;;;;;;;;;;4968968;28;20082;-78
2024/01/24 01:49:57;;;;;;;3.40;0.75;;;;;;;;;;4972950;28;20047;-78
2024/01/24 01:52:24;;;;;;;5.93;1.40;;;;;;;;;;4963648;28;20062;-78
2024/01/24 01:54:51;;;;;;;4.75;1.33;;;;;;;;;;4969497;28;20150;-77
2024/01/24 01:57:18;;;;;;;3.65;0.70;;;;;;;;;;4997728;28;20082;-78
2024/01/24 01:59:45;;;;;;;2.47;0.77;;;;;;;;;;4981662;28;20529;-77
2024/01/24 02:02:13;;;;;;;5.45;1.13;;;;;;;;;;4960775;28;20081;-78
2024/01/24 02:04:40;;;;;;;4.18;0.80;;;;;;;;;;4964413;28;20051;-77
2024/01/24 02:07:06;;;;;;;2.67;1.65;;;;;;;;;;4999349;28;20054;-77
2024/01/24 02:09:34;;;;;;;7.28;0.90;;;;;;;;;;5000864;28;20447;-77
2024/01/24 02:12:01;;;;;;;3.28;1.08;;;;;;;;;;5003628;28;20066;-77
2024/01/24 02:14:28;;;;;;;5.28;1.05;;;;;;;;;;4995801;28;20046;-76
2024/01/24 02:16:55;;;;;;;4.68;0.80;;;;;;;;;;4980924;28;20050;-77
2024/01/24 02:19:22;;;;;;;5.15;1.15;;;;;;;;;;4964545;28;20086;-77
2024/01/24 02:21:49;;;;;;;4.78;1.40;;;;;;;;;;4964702;28;20429;-77
2024/01/24 02:24:15;;;;;;;3.20;0.60;;;;;;;;;;4992855;28;20725;-77
2024/01/24 02:26:42;;;;;;;1.63;0.55;;;;;;;;;;4977176;28;20094;-77
2024/01/24 02:29:11;;;;;;;2.03;0.68;;;;;;;;;;4976173;28;20118;-76
2024/01/24 02:31:38;;;;;;;3.17;0.80;;;;;;;;;;4977843;28;20062;-77
2024/01/24 02:34:05;;;;;;;1.63;0.50;;;;;;;;;;5007510;28;20088;-77
2024/01/24 02:36:32;;;;;;;2.38;0.60;;;;;;;;;;4966275;28;20081;-78
2024/01/24 02:38:59;;;;;;;3.25;0.57;;;;;;;;;;4982148;28;20513;-79
2024/01/24 02:41:26;;;;;;;3.05;0.40;;;;;;;;;;4998362;28;20120;-79
2024/01/24 02:43:53;;;;;;;2.55;0.60;;;;;;;;;;4977874;28;20054;-79
2024/01/24 02:46:19;;;;;;;3.50;0.93;;;;;;;;;;4996490;28;20109;-77
2024/01/24 02:48:46;;;;;;;2.15;0.60;;;;;;;;;;4993850;28;20484;-77
2024/01/24 02:51:25;;;;;;;0.77;0.30;;;;;;;;;;4993811;28;20452;-77
2024/01/24 02:53:52;;;;;;;3.03;0.60;;;;;;;;;;4963177;28;20050;-78
2024/01/24 02:56:19;;;;;;;6.20;1.00;;;;;;;;;;4980623;28;20089;-77
2024/01/24 02:58:47;;;;;;;1.77;0.40;;;;;;;;;;4977631;28;20058;-77
2024/01/24 03:01:15;;;;;;;4.35;0.85;;;;;;;;;;4979464;28;20081;-77
2024/01/24 03:03:45;;;;;;;3.83;0.52;;;;;;;;;;4965334;28;20058;-78
2024/01/24 03:06:13;;;;;;;6.68;0.80;;;;;;;;;;5014418;28;20054;-78
2024/01/24 03:09:07;;;;;;;3.22;0.70;;;;;;;;;;4982723;28;20054;-78
2024/01/24 03:11:33;;;;;;;0.98;0.45;;;;;;;;;;4983025;28;20054;-79
2024/01/24 03:14:01;;;;;;;2.70;0.55;;;;;;;;;;5016830;28;20058;-79
2024/01/24 03:16:27;;;;;;;2.97;0.68;;;;;;;;;;5000977;28;20149;-79
2024/01/24 03:18:54;;;;;;;2.75;0.60;;;;;;;;;;4998382;28;20096;-78
2024/01/24 03:21:21;;;;;;;5.00;0.95;;;;;;;;;;5000788;28;20522;-79
2024/01/24 03:23:48;;;;;;;2.40;0.57;;;;;;;;;;4984702;28;20056;-80
2024/01/24 03:26:16;;;;;;;3.75;0.82;;;;;;;;;;5017638;28;20078;-80
2024/01/24 03:28:43;;;;;;;2.80;0.70;;;;;;;;;;4988713;28;20085;-79
2024/01/24 03:31:10;;;;;;;3.63;0.85;;;;;;;;;;5002987;28;20536;-79
2024/01/24 03:33:37;;;;;;;2.47;0.40;;;;;;;;;;4972774;28;20074;-80
2024/01/24 03:36:04;;;;;;;2.88;0.90;;;;;;;;;;4973234;28;20129;-80
2024/01/24 03:38:30;;;;;;;1.98;0.65;;;;;;;;;;4988967;28;20059;-81
2024/01/24 03:40:57;;;;;;;4.88;0.60;;;;;;;;;;5005650;28;20058;-80
2024/01/24 03:43:24;;;;;;;2.78;0.75;;;;;;;;;;5006026;28;20081;-80
2024/01/24 03:45:51;;;;;;;3.80;0.57;;;;;;;;;;4990785;28;20058;-78
2024/01/24 03:48:18;;;;;;;5.13;0.70;;;;;;;;;;5007309;28;20085;-81
2024/01/24 03:50:44;;;;;;;3.25;0.60;;;;;;;;;;4988970;28;20062;-81
2024/01/24 03:53:11;;;;;;;3.90;0.70;;;;;;;;;;4991088;28;20189;-81
2024/01/24 03:55:38;;;;;;;1.92;0.75;;;;;;;;;;5008925;28;20065;-80
2024/01/24 03:58:04;;;;;;;2.67;0.45;;;;;;;;;;4992066;28;20089;-80
2024/01/24 04:00:31;;;;;;;3.35;0.80;;;;;;;;;;5004509;28;20050;-80
2024/01/24 04:02:58;;;;;;;3.88;0.57;;;;;;;;;;5024566;28;20057;-80
2024/01/24 04:05:25;;;;;;;5.43;1.15;;;;;;;;;;4992938;28;20046;-79
2024/01/24 04:07:52;;;;;;;1.88;0.65;;;;;;;;;;5008900;28;20082;-80
2024/01/24 04:10:19;;;;;;;4.78;0.68;;;;;;;;;;4992267;28;20050;-80
2024/01/24 04:12:46;;;;;;;5.05;1.00;;;;;;;;;;5008894;28;20050;-80
2024/01/24 04:15:12;;;;;;;2.90;1.00;;;;;;;;;;5025540;28;20603;-80
2024/01/24 04:17:39;;;;;;;4.68;1.20;;;;;;;;;;4992874;28;20073;-80
2024/01/24 04:20:07;;;;;;;2.83;0.70;;;;;;;;;;4979604;28;20055;-80
2024/01/24 04:22:34;;;;;;;3.00;0.70;;;;;;;;;;5008912;28;20086;-80
2024/01/24 04:25:01;;;;;;;2.35;0.60;;;;;;;;;;5008308;28;20128;-80
2024/01/24 04:27:28;;;;;;;3.25;0.68;;;;;;;;;;4976618;28;20054;-82
2024/01/24 04:29:55;;;;;;;2.40;0.68;;;;;;;;;;5002113;28;20051;-81
2024/01/24 04:32:22;;;;;;;4.45;0.70;;;;;;;;;;4991872;28;20054;-80
2024/01/24 04:34:48;;;;;;;4.15;1.15;;;;;;;;;;5006108;28;20046;-81
2024/01/24 04:37:15;;;;;;;3.50;0.90;;;;;;;;;;5007893;28;20054;-81
2024/01/24 04:39:42;;;;;;;3.05;0.80;;;;;;;;;;5006127;28;20129;-81
2024/01/24 04:42:09;;;;;;;1.38;0.60;;;;;;;;;;4988932;28;20466;-78
2024/01/24 04:44:43;;;;;;;3.13;0.88;;;;;;;;;;4993356;28;20061;-79
2024/01/24 04:47:13;;;;;;;3.17;0.70;;;;;;;;;;4990041;28;20058;-78
2024/01/24 04:49:40;;;;;;;2.78;1.05;;;;;;;;;;4991581;28;20050;-79
2024/01/24 04:52:11;;;;;;;4.72;0.60;;;;;;;;;;4976628;28;20085;-77
2024/01/24 04:54:38;;;;;;;3.33;0.80;;;;;;;;;;4982033;28;20047;-77
2024/01/24 04:57:05;;;;;;;3.72;0.70;;;;;;;;;;5005422;28;20050;-79
2024/01/24 04:59:32;;;;;;;3.35;0.52;;;;;;;;;;5003325;28;20081;-79
2024/01/24 05:02:15;;;;;;;2.33;0.95;;;;;;;;;;4985996;28;20054;-79
2024/01/24 05:04:42;;;;;;;4.88;3.00;;;;;;;;;;4990095;28;20050;-80
2024/01/24 05:07:08;;;;;;;6.93;3.00;;;;;;;;;;4982581;28;20081;-80
2024/01/24 05:09:35;;;;;;;4.38;1.83;;;;;;;;;;4985346;28;20104;-80
2024/01/24 05:12:02;;;;;;;4.72;1.42;;;;;;;;;;4967043;28;20080;-78
2024/01/24 05:14:29;;;;;;;3.05;1.27;;;;;;;;;;4996984;28;20106;-79
2024/01/24 05:16:56;;;;;;;1.95;0.60;;;;;;;;;;5008726;28;20137;-80
2024/01/24 05:19:23;;;;;;;6.07;1.05;;;;;;;;;;4968721;28;20085;-80
2024/01/24 05:21:49;;;;;;;2.17;0.70;;;;;;;;;;4987194;28;20065;-80
2024/01/24 05:24:16;;;;;;;2.95;0.73;;;;;;;;;;4977941;28;20047;-79
2024/01/24 05:26:46;;;;;;;2.83;1.08;;;;;;;;;;5003943;28;20065;-79
2024/01/24 05:29:13;;;;;;;3.72;0.88;;;;;;;;;;4992198;28;20089;-79
2024/01/24 05:31:40;;;;;;;7.60;3.53;;;;;;;;;;4977737;28;20082;-79
2024/01/24 05:34:08;;;;;;;2.05;0.80;;;;;;;;;;4998819;28;20065;-80
2024/01/24 05:36:35;;;;;;;2.22;0.57;;;;;;;;;;4975302;28;20067;-80
2024/01/24 05:39:06;;;;;;;3.42;0.70;;;;;;;;;;4986809;28;20058;-79
2024/01/24 05:41:35;;;;;;;3.53;0.88;;;;;;;;;;4967909;28;20058;-79
2024/01/24 05:44:02;;;;;;;2.90;0.68;;;;;;;;;;4975424;28;20070;-78
2024/01/24 05:46:30;;;;;;;4.85;0.90;;;;;;;;;;4999385;28;20050;-79
2024/01/24 05:48:57;;;;;;;1.15;0.38;;;;;;;;;;4977265;28;20050;-78
2024/01/24 05:51:24;;;;;;;1.60;0.80;;;;;;;;;;4988599;28;20058;-77
2024/01/24 05:53:51;;;;;;;5.22;1.13;;;;;;;;;;4992826;28;20061;-78
2024/01/24 05:56:20;;;;;;;4.38;0.85;;;;;;;;;;5004243;28;20118;-77
2024/01/24 05:58:47;;;;;;;2.20;0.60;;;;;;;;;;5001232;28;20502;-78
2024/01/24 06:01:17;;;;;;;1.48;0.80;;;;;;;;;;4988229;28;20513;-80
2024/01/24 06:03:44;;;;;;;1.10;0.50;;;;;;;;;;5006555;28;20038;-79
2024/01/24 06:06:14;;;;;;;2.28;0.65;;;;;;;;;;4991283;28;20062;-78
2024/01/24 06:08:43;;;;;;;1.42;0.60;;;;;;;;;;5005824;28;20054;-79
2024/01/24 06:11:14;;;;;;;1.83;1.00;;;;;;;;;;4973072;28;20055;-78
2024/01/24 06:13:41;;;;;;;6.28;1.55;;;;;;;;;;5000530;28;20047;-78
2024/01/24 06:16:08;;;;;;;2.42;0.70;;;;;;;;;;4989143;28;20054;-79
2024/01/24 06:18:35;;;;;;;2.65;0.90;;;;;;;;;;4972925;28;20050;-79
2024/01/24 06:21:02;;;;;;;2.67;0.80;;;;;;;;;;4984824;28;20067;-79
2024/01/24 06:23:29;;;;;;;2.22;0.65;;;;;;;;;;4973354;28;20077;-79
2024/01/24 06:25:55;;;;;;;2.70;0.80;;;;;;;;;;4974448;28;20133;-80
2024/01/24 06:28:22;;;;;;;2.30;0.50;;;;;;;;;;4989612;28;20439;-79
2024/01/24 06:30:51;;;;;;;3.42;1.33;;;;;;;;;;4974591;28;20533;-78
2024/01/24 06:33:18;;;;;;;1.92;0.73;;;;;;;;;;4993774;28;20485;-77
2024/01/24 06:35:45;;;;;;;1.23;0.80;;;;;;;;;;4994285;28;20058;-77
2024/01/24 06:38:12;;;;;;;1.25;0.55;;;;;;;;;;4970141;28;20141;-77
2024/01/24 06:40:39;;;;;;;1.30;0.40;;;;;;;;;;4977065;28;20056;-77
2024/01/24 06:43:06;;;;;;;1.45;0.60;;;;;;;;;;4975369;28;20133;-77
2024/01/24 06:45:33;;;;;;;2.38;0.57;;;;;;;;;;4975356;28;20140;-77
2024/01/24 06:47:59;;;;;;;3.40;1.67;;;;;;;;;;4970802;28;20130;-80
2024/01/24 06:50:27;;;;;;;2.60;0.70;;;;;;;;;;4987924;28;20086;-80
2024/01/24 06:52:54;;;;;;;1.67;0.50;;;;;;;;;;4971227;28;20061;-80
2024/01/24 06:55:22;;;;;;;1.52;0.75;;;;;;;;;;4981962;28;20053;-79
2024/01/24 06:57:48;;;;;;;2.80;0.70;;;;;;;;;;4993744;28;20054;-78
2024/01/24 07:00:15;;;;;;;1.55;0.50;;;;;;;;;;4972541;28;20054;-81
2024/01/24 07:02:42;;;;;;;1.77;0.50;;;;;;;;;;4970046;28;20122;-79
2024/01/24 07:05:09;;;;;;;1.38;0.43;;;;;;;;;;4986131;28;20081;-79
2024/01/24 07:07:37;;;;;;;1.02;0.40;;;;;;;;;;4974041;28;20423;-77
2024/01/24 07:10:04;;;;;;;1.70;0.70;;;;;;;;;;4994659;28;20054;-76
2024/01/24 07:12:31;;;;;;;3.58;0.60;;;;;;;;;;4974905;28;20062;-80
2024/01/24 07:14:58;;;;;;;1.17;0.50;;;;;;;;;;4953550;28;20066;-75
2024/01/24 07:17:25;;;;;;;2.17;0.68;;;;;;;;;;4972894;28;20089;-76
2024/01/24 07:19:51;;;;;;;1.67;0.70;;;;;;;;;;4988607;28;20510;-76
2024/01/24 07:22:18;;;;;;;0.60;0.40;;;;;;;;;;4988621;28;20113;-77
2024/01/24 07:24:45;;;;;;;1.10;0.43;;;;;;;;;;4966834;28;20582;-76
2024/01/24 07:27:12;;;;;;;2.20;0.60;;;;;;;;;;4955271;28;20055;-76
2024/01/24 07:29:39;;;;;;;3.35;0.55;;;;;;;;;;4972341;28;20050;-76
2024/01/24 07:32:06;;;;;;;2.83;0.80;;;;;;;;;;4965292;28;20058;-76
2024/01/24 07:34:32;;;;;;;1.42;0.60;;;;;;;;;;4988009;28;20074;-76
2024/01/24 07:36:59;;;;;;;0.50;0.30;;;;;;;;;;4988696;28;20062;-77
2024/01/24 07:39:28;;;;;;;1.10;0.32;;;;;;;;;;4992128;28;20054;-78
2024/01/24 07:41:55;;;;;;;2.97;0.68;;;;;;;;;;4977713;28;20604;-79
2024/01/24 07:44:23;;;;;;;0.93;0.50;;;;;;;;;;4978574;28;20064;-79
2024/01/24 07:46:50;;;;;;;1.63;1.02;;;;;;;;;;4973833;28;20518;-81
2024/01/24 07:49:17;;;;;;;1.98;0.52;;;;;;;;;;4960325;28;20485;-78
2024/01/24 07:51:46;;;;;;;1.48;0.50;;;;;;;;;;4973529;28;20050;-79
2024/01/24 07:54:17;;;;;;;1.60;0.65;;;;;;;;;;4960767;28;20425;-79
2024/01/24 07:56:45;;;;;;;2.33;0.60;;;;;;;;;;4958389;28;20055;-81
2024/01/24 07:59:16;;;;;;;1.08;0.40;;;;;;;;;;4975622;28;20086;-79
2024/01/24 08:01:47;;;;;;;3.85;0.43;;;;;;;;;;4997702;28;20529;-80
2024/01/24 08:04:16;;;;;;;1.57;0.60;;;;;;;;;;4975175;28;20496;-80
2024/01/24 08:06:45;;;;;;;1.55;0.70;;;;;;;;;;4977088;28;20682;-78
2024/01/24 08:09:13;;;;;;;1.17;0.50;;;;;;;;;;4980722;28;20050;-82
2024/01/24 08:11:41;;;;;;;1.15;0.70;;;;;;;;;;4966044;28;20517;-79
2024/01/24 08:14:08;;;;;;;6.05;0.75;;;;;;;;;;4982206;28;20438;-78
2024/01/24 08:16:35;;;;;;;1.90;0.60;;;;;;;;;;5003251;28;20065;-79
2024/01/24 08:19:02;;;;;;;2.58;0.57;;;;;;;;;;4998863;28;20112;-78
2024/01/24 08:21:30;;;;;;;1.27;0.50;;;;;;;;;;4983870;28;20486;-79
2024/01/24 08:23:57;;;;;;;2.00;0.60;;;;;;;;;;4979946;28;20085;-79
2024/01/24 08:26:24;;;;;;;1.13;0.80;;;;;;;;;;4986946;28;20090;-79
2024/01/24 08:28:52;;;;;;;3.10;1.08;;;;;;;;;;4978045;28;20100;-78
2024/01/24 08:31:19;;;;;;;1.88;0.55;;;;;;;;;;4976424;28;20077;-79
2024/01/24 08:33:46;;;;;;;0.65;0.60;;;;;;;;;;4992429;28;20142;-79
2024/01/24 08:36:18;;;;;;;0.73;0.30;;;;;;;;;;4984509;28;20112;-76
2024/01/24 08:38:46;;;;;;;1.23;0.47;;;;;;;;;;4998180;28;20403;-83
2024/01/24 08:41:12;;;;;;;0.47;0.38;;;;;;;;;;4969489;28;20069;-81
2024/01/24 08:43:39;;;;;;;0.20;0.15;;;;;;;;;;5000055;28;20065;-81
2024/01/24 08:46:06;;;;;;;1.08;0.30;;;;;;;;;;5001271;28;20534;-81
2024/01/24 08:48:35;;;;;;;0.30;0.30;;;;;;;;;;4994191;28;20065;-83
2024/01/24 08:51:03;;;;;;;0.57;0.38;;;;;;;;;;4983499;28;20094;-80
2024/01/24 08:53:30;;;;;;;3.05;1.08;;;;;;;;;;4996394;28;20145;-82
2024/01/24 08:55:56;;;;;;;1.00;0.45;;;;;;;;;;4979202;28;20058;-81
2024/01/24 08:58:23;;;;;;;0.45;0.30;;;;;;;;;;4997727;28;20051;-81
2024/01/24 09:00:51;;;;;;;0.40;0.20;;;;;;;;;;5011226;28;20536;-81
2024/01/24 09:03:18;;;;;;;1.35;0.30;;;;;;;;;;4978983;28;20058;-79
2024/01/24 09:05:46;;;;;;;1.25;0.30;;;;;;;;;;5006600;28;20461;-78
2024/01/24 09:08:13;;;;;;;0.70;0.30;;;;;;;;;;4972645;28;20146;-79
2024/01/24 09:10:40;;;;;;;0.80;0.20;;;;;;;;;;4998732;28;20050;-79
2024/01/24 09:13:07;;;;;;;2.55;0.30;;;;;;;;;;5001439;28;20050;-78
2024/01/24 09:15:34;;;;;;;0.30;0.22;;;;;;;;;;4976767;28;20050;-77
2024/01/24 09:18:01;;;;;;;3.05;1.30;;;;;;;;;;4976715;28;20457;-78
2024/01/24 09:20:28;;;;;;;1.90;1.40;;;;;;;;;;4977539;28;20145;-76
2024/01/24 09:22:55;;;;;;;0.52;0.40;;;;;;;;;;4992154;28;20058;-78
2024/01/24 09:25:22;;;;;;;0.30;0.30;;;;;;;;;;4993193;28;20692;-77
2024/01/24 09:27:50;;;;;;;0.77;0.30;;;;;;;;;;5009598;28;20141;-77
2024/01/24 09:30:19;;;;;;;0.28;0.17;;;;;;;;;;4975932;28;20065;-78
2024/01/24 09:32:46;;;;;;;0.10;0.10;;;;;;;;;;4973694;28;20584;-86
2024/01/24 09:35:14;;;;;;;2.28;0.32;;;;;;;;;;4961728;28;20049;-82
2024/01/24 09:37:41;;;;;;;0.47;0.40;;;;;;;;;;4970779;28;20062;-83
2024/01/24 09:40:08;;;;;;;0.57;0.20;;;;;;;;;;4990241;28;20426;-83
2024/01/24 09:42:42;;;;;;;1.25;0.50;;;;;;;;;;4973127;28;20101;-85
2024/01/24 09:45:09;;;;;;;0.32;0.30;;;;;;;;;;4960749;28;20053;-84
2024/01/24 09:47:37;;;;;;;0.45;0.20;;;;;;;;;;4956391;28;20105;-87
2024/01/24 09:50:04;;;;;;;0.20;0.20;;;;;;;;;;4974410;28;20054;-84
2024/01/24 09:52:34;;;;;;;0.25;0.25;;;;;;;;;;4990247;28;20073;-83
2024/01/24 09:55:04;;;;;;;0.03;0.00;;;;;;;;;;4987744;28;20050;-84
2024/01/24 09:57:32;;;;;;;3.50;0.20;;;;;;;;;;4973609;28;20073;-85
2024/01/24 09:59:59;;;;;;;1.10;0.17;;;;;;;;;;4951464;28;20050;-84
2024/01/24 10:02:27;;;;;;;0.30;0.10;;;;;;;;;;4959834;28;20403;-85
2024/01/24 10:04:54;;;;;;;0.55;0.20;;;;;;;;;;4957880;28;20047;-84
2024/01/24 10:07:21;;;;;;;0.30;0.30;;;;;;;;;;4972670;28;20569;-84
2024/01/24 10:09:48;;;;;;;0.15;0.10;;;;;;;;;;4964701;28;20522;-84
2024/01/24 10:12:16;;;;;;;0.20;0.10;;;;;;;;;;4974951;28;20918;-84
2024/01/24 10:14:42;;;;;;;0.30;0.30;;;;;;;;;;4990404;28;20054;-84
2024/01/24 10:17:11;;;;;;;0.52;0.20;;;;;;;;;;4990313;28;20089;-83
2024/01/24 10:19:38;;;;;;;0.10;0.10;;;;;;;;;;4959067;28;20054;-83
2024/01/24 10:22:05;;;;;;;0.10;0.10;;;;;;;;;;5003780;28;20449;-84
2024/01/24 10:24:36;;;;;;;0.10;0.10;;;;;;;;;;4989610;28;20197;-83
2024/01/24 10:27:04;;;;;;;0.10;0.10;;;;;;;;;;4973666;28;20082;-84
2024/01/24 10:29:31;;;;;;;0.17;0.10;;;;;;;;;;4957916;28;20050;-83
2024/01/24 10:31:58;;;;;;;0.30;0.20;;;;;;;;;;5006358;28;20058;-83
2024/01/24 10:34:27;;;;;;;0.08;0.08;;;;;;;;;;4978812;28;20050;-83
2024/01/24 10:36:55;;;;;;;0.57;0.20;;;;;;;;;;4965483;28;20054;-84
2024/01/24 10:39:23;;;;;;;0.52;0.20;;;;;;;;;;4971067;28;20054;-84
2024/01/24 10:41:53;;;;;;;0.15;0.15;;;;;;;;;;4948916;28;20132;-84
2024/01/24 10:44:24;;;;;;;0.35;0.10;;;;;;;;;;4973931;28;20054;-83
2024/01/24 10:46:51;;;;;;;0.20;0.17;;;;;;;;;;4972486;28;20050;-83
2024/01/24 10:49:18;;;;;;;0.15;0.10;;;;;;;;;;4974762;28;20653;-83
2024/01/24 10:51:46;;;;;;;0.15;0.10;;;;;;;;;;4974748;28;20046;-84
2024/01/24 10:54:15;;;;;;;0.10;0.00;;;;;;;;;;4958100;28;20137;-83
2024/01/24 10:56:46;;;;;;;0.17;0.10;;;;;;;;;;4987890;28;20054;-83
2024/01/24 10:59:13;;;;;;;0.70;0.32;;;;;;;;;;4969014;28;20501;-83
2024/01/24 11:01:40;;;;;;;0.38;0.38;;;;;;;;;;4973380;28;20074;-84
2024/01/24 11:04:07;;;;;;;0.30;0.10;;;;;;;;;;4989721;28;20506;-85
2024/01/24 11:06:57;;;;;;;0.30;0.10;;;;;;;;;;4954740;28;20070;-83
2024/01/24 11:09:52;;;;;;;0.20;0.20;;;;;;;;;;4962598;28;20133;-83
2024/01/24 11:12:20;;;;;;;0.90;0.20;;;;;;;;;;4974192;28;20050;-86
2024/01/24 11:14:47;;;;;;;2.78;0.50;;;;;;;;;;4972815;28;20062;-85
2024/01/24 11:17:16;;;;;;;0.00;0.00;;;;;;;;;;4972117;28;20100;-85
2024/01/24 11:19:42;;;;;;;0.93;0.15;;;;;;;;;;4957348;28;20081;-84
2024/01/24 11:22:11;;;;;;;0.20;0.20;;;;;;;;;;4995960;28;20136;-82
2024/01/24 11:24:52;;;;;;;0.60;0.30;;;;;;;;;;4999330;28;20085;-81
2024/01/24 11:27:46;;;;;;;0.38;0.05;;;;;;;;;;4978906;28;20057;-82
2024/01/24 11:30:26;;;;;;;0.30;0.20;;;;;;;;;;4966656;28;20105;-77
2024/01/24 11:32:54;;;;;;;4.30;1.17;;;;;;;;;;4989463;28;20089;-77
2024/01/24 11:35:35;;;;;;;1.23;0.50;;;;;;;;;;4998722;28;20056;-78
2024/01/24 11:38:08;;;;;;;0.75;0.35;;;;;;;;;;4976847;28;20538;-78
2024/01/24 11:40:51;;;;;;;0.60;0.15;;;;;;;;;;4988004;28;20082;-79
2024/01/24 11:43:32;;;;;;;0.30;0.17;;;;;;;;;;4986062;28;20093;-79
2024/01/24 11:46:05;;;;;;;0.10;0.10;;;;;;;;;;4989302;28;20058;-78
2024/01/24 11:48:34;;;;;;;0.10;0.10;;;;;;;;;;4989050;28;20062;-80
2024/01/24 11:51:09;;;;;;;0.38;0.10;;;;;;;;;;5005176;28;20073;-79
2024/01/24 11:53:35;;;;;;;1.10;0.10;;;;;;;;;;4983352;28;20055;-79
2024/01/24 11:56:21;;;;;;;0.80;0.30;;;;;;;;;;4982638;28;20129;-80
2024/01/24 11:58:50;;;;;;;1.50;0.38;;;;;;;;;;4973283;28;20065;-79
2024/01/24 12:01:17;;;;;;;0.28;0.20;;;;;;;;;;4984898;28;20101;-79
2024/01/24 12:03:48;;;;;;;0.20;0.10;;;;;;;;;;5000959;28;20069;-80
2024/01/24 12:06:22;;;;;;;0.17;0.17;;;;;;;;;;5006964;28;20046;-81
2024/01/24 12:08:49;;;;;;;0.10;0.10;;;;;;;;;;4977693;28;20092;-80
2024/01/24 12:11:18;;;;;;;0.20;0.10;;;;;;;;;;5009652;28;20081;-79
2024/01/24 12:13:45;;;;;;;3.60;0.57;;;;;;;;;;4987807;28;20054;-80
2024/01/24 12:16:12;;;;;;;0.82;0.30;;;;;;;;;;5005861;28;20046;-79
2024/01/24 12:18:39;;;;;;;0.82;0.40;;;;;;;;;;4977056;28;20078;-78
2024/01/24 12:21:09;;;;;;;2.42;0.30;;;;;;;;;;5023623;28;20061;-79
2024/01/24 12:23:36;;;;;;;2.67;0.50;;;;;;;;;;4992180;28;20053;-81
2024/01/24 12:26:03;;;;;;;0.98;0.40;;;;;;;;;;4991499;28;20055;-80
2024/01/24 12:28:30;;;;;;;3.25;0.40;;;;;;;;;;5004649;28;20128;-78
2024/01/24 12:30:58;;;;;;;1.55;0.50;;;;;;;;;;4990810;28;20054;-81
2024/01/24 12:33:26;;;;;;;3.83;0.30;;;;;;;;;;5004517;28;20078;-81
2024/01/24 12:35:53;;;;;;;4.80;0.90;;;;;;;;;;4975564;28;20957;-81
2024/01/24 12:38:20;;;;;;;1.75;0.50;;;;;;;;;;5025172;28;20074;-81
2024/01/24 12:40:51;;;;;;;2.53;0.43;;;;;;;;;;4975563;28;20145;-80
2024/01/24 12:43:21;;;;;;;1.63;0.30;;;;;;;;;;5009848;28;20053;-79
2024/01/24 12:45:50;;;;;;;1.50;0.30;;;;;;;;;;4975089;28;20053;-79
2024/01/24 12:48:18;;;;;;;4.22;1.10;;;;;;;;;;4993201;28;20061;-78
2024/01/24 12:50:50;;;;;;;2.13;0.77;;;;;;;;;;4993931;28;20046;-79
2024/01/24 12:53:17;;;;;;;2.72;0.90;;;;;;;;;;4989100;28;20178;-78
2024/01/24 12:55:44;;;;;;;2.05;0.63;;;;;;;;;;5008802;28;20053;-81
2024/01/24 12:58:10;;;;;;;1.35;0.68;;;;;;;;;;5000795;28;20050;-79
2024/01/24 13:00:37;;;;;;;1.13;0.40;;;;;;;;;;5005232;28;20070;-80
2024/01/24 13:03:05;;;;;;;1.48;0.38;;;;;;;;;;5026403;28;20061;-79
2024/01/24 13:05:32;;;;;;;1.60;0.40;;;;;;;;;;4993888;28;20050;-79
2024/01/24 13:08:12;;;;;;;1.52;0.50;;;;;;;;;;5007363;28;20050;-80
2024/01/24 13:10:42;;;;;;;4.53;1.02;;;;;;;;;;4987244;28;20126;-78
2024/01/24 13:13:10;;;;;;;2.10;0.93;;;;;;;;;;4993558;28;20068;-80
2024/01/24 13:15:37;;;;;;;1.55;0.50;;;;;;;;;;4992363;28;20090;-79
2024/01/24 13:18:07;;;;;;;1.17;0.70;;;;;;;;;;5007860;28;20411;-81
2024/01/24 13:20:34;;;;;;;2.05;0.75;;;;;;;;;;4985862;28;20046;-81
2024/01/24 13:23:01;;;;;;;4.45;0.60;;;;;;;;;;4985367;28;20082;-80
2024/01/24 13:25:28;;;;;;;3.97;0.70;;;;;;;;;;5024760;28;20874;-79
2024/01/24 13:27:56;;;;;;;2.28;0.60;;;;;;;;;;5008031;28;20066;-80
2024/01/24 13:30:23;;;;;;;3.22;0.60;;;;;;;;;;5006398;28;20068;-81
2024/01/24 13:32:51;;;;;;;1.40;0.63;;;;;;;;;;4984985;28;20430;-81
2024/01/24 13:35:18;;;;;;;2.13;0.75;;;;;;;;;;4986357;28;20056;-80
2024/01/24 13:37:46;;;;;;;5.28;1.00;;;;;;;;;;4992307;28;20080;-79
2024/01/24 13:40:13;;;;;;;4.13;0.60;;;;;;;;;;5024713;28;20034;-81
2024/01/24 13:42:40;;;;;;;1.88;0.73;;;;;;;;;;4991175;28;20051;-80
2024/01/24 13:45:08;;;;;;;2.30;0.60;;;;;;;;;;4991666;28;20058;-78
2024/01/24 13:47:37;;;;;;;2.38;0.68;;;;;;;;;;4983642;28;20061;-81
2024/01/24 13:50:05;;;;;;;2.13;0.50;;;;;;;;;;4988742;28;20065;-80
2024/01/24 13:52:33;;;;;;;4.82;0.73;;;;;;;;;;4984348;28;20133;-80
2024/01/24 13:55:00;;;;;;;2.60;0.50;;;;;;;;;;5000279;28;20072;-77
2024/01/24 13:57:27;;;;;;;3.42;1.98;;;;;;;;;;4996802;28;20054;-76
2024/01/24 13:59:55;;;;;;;2.45;1.15;;;;;;;;;;4981527;28;20101;-79
2024/01/24 14:02:22;;;;;;;2.00;0.73;;;;;;;;;;4996141;28;20038;-79
2024/01/24 14:04:49;;;;;;;2.58;0.57;;;;;;;;;;4993037;28;20114;-82
2024/01/24 14:07:17;;;;;;;4.40;0.77;;;;;;;;;;4971212;28;20038;-82
2024/01/24 14:09:44;;;;;;;1.55;0.70;;;;;;;;;;4985961;28;20054;-82
2024/01/24 14:12:11;;;;;;;3.33;0.70;;;;;;;;;;4989782;28;20104;-80
2024/01/24 14:14:38;;;;;;;3.22;0.90;;;;;;;;;;4989699;28;20134;-78
2024/01/24 14:17:05;;;;;;;2.42;0.70;;;;;;;;;;5021100;28;20101;-79
2024/01/24 14:19:32;;;;;;;1.83;0.73;;;;;;;;;;5004772;28;20116;-80
2024/01/24 14:21:59;;;;;;;7.93;1.27;;;;;;;;;;4986868;28;20066;-78
2024/01/24 14:24:25;;;;;;;3.35;1.00;;;;;;;;;;5005702;28;20050;-79
2024/01/24 14:26:53;;;;;;;2.45;0.60;;;;;;;;;;4988175;28;20057;-79
2024/01/24 14:29:19;;;;;;;2.42;0.40;;;;;;;;;;4974217;28;20073;-80
2024/01/24 14:31:47;;;;;;;4.80;0.93;;;;;;;;;;4987725;28;20045;-79
2024/01/24 14:34:14;;;;;;;3.75;1.13;;;;;;;;;;4996762;28;20082;-79
2024/01/24 14:36:41;;;;;;;1.02;0.52;;;;;;;;;;4986058;28;20076;-79
2024/01/24 14:39:20;;;;;;;6.20;0.70;;;;;;;;;;4969791;28;20053;-80
2024/01/24 14:41:54;;;;;;;3.30;0.98;;;;;;;;;;5131040;27;20460;-83
2024/01/24 14:44:20;;;;;;;10.35;1.38;;;;;;;;;;5077487;28;20134;-81
2024/01/24 14:46:47;;;;;;;7.35;1.20;;;;;;;;;;5083773;28;20079;-81
2024/01/24 14:49:14;;;;;;;5.40;0.98;;;;;;;;;;5082363;28;20514;-81